• Join FlightAware (Why Join?)
  • Login
  • US Flag 
03:24PM EDT


 

Airport Tracker/Info


-or-


 

Live Flight TrackerFlight Track Log ✈ SLI131 ✈ 30-Apr-2012 ✈ MMLO / BJX - MMMX / MEX

Flight Track Log - Related Links

Times and Time Zones

All times are in EDT time to prevent confusion due to time zone crossing. See the SLI131 flight status page for this flight to view local times or setup timezone preferences in your user account.

Time Position Orientation Groundspeed Altitude Reporting Facility
EDT Latitude Longitude Course Direction KTS MPH feet Rate Location/Type
05:48PM 20.9720 -101.4470 124° Southeast  Level Estimated
05:49PM 20.8863 -101.3119 124° Southeast  Level Estimated
05:50PM 20.8005 -101.1768 124° Southeast  Level Estimated
05:51PM 20.7145 -101.0420 124° Southeast  Level Estimated
05:52PM 20.6285 -100.9073 124° Southeast  Level Estimated
05:53PM 20.5423 -100.7727 124° Southeast  Level Estimated
05:54PM 20.4561 -100.6383 124° Southeast  Level Estimated
05:55PM 20.3697 -100.5041 124° Southeast  Level Estimated
05:56PM 20.2833 -100.3699 125° Southeast  Level Estimated
05:57PM 20.1967 -100.2360 125° Southeast  Level Estimated
05:58PM 20.1100 -100.1022 125° Southeast  Level Estimated
05:59PM 20.0233 -99.9685 125° Southeast  Level Estimated
06:00PM 19.9364 -99.8350 125° Southeast  Level Estimated
06:01PM 19.8494 -99.7017 125° Southeast  Level Estimated
06:02PM 19.7624 -99.5684 125° Southeast  Level Estimated
06:03PM 19.6752 -99.4354 125° Southeast  Level Estimated
06:04PM 19.5880 -99.3024 125° Southeast  Level Estimated
06:05PM 19.5006 -99.1697 125° Southeast  Level Estimated
06:06PM 19.4132 -99.0370 305° West  Level Estimated
06:07PM 19.5006 -99.1697 125° Southeast  Level Estimated
06:08PM 19.4132 -99.0370 305° West  Level Estimated
06:09PM 19.5006 -99.1697 125° Southeast  Level Estimated
06:10PM 19.4132 -99.0370 305° West  Level Estimated
06:11PM 19.5006 -99.1697 125° Southeast  Level Estimated
06:12PM 19.4132 -99.0370 305° West  Level Estimated
06:13PM 19.5006 -99.1697 125° Southeast  Level Estimated
06:14PM 19.4132 -99.0370 305° West  Level Estimated
06:15PM 19.5006 -99.1697 125° Southeast  Level Estimated
06:16PM 19.4132 -99.0370 305° West  Level Estimated
06:17PM 19.5006 -99.1697 125° Southeast  Level Estimated
06:18PM 19.4132 -99.0370 305° West  Level Estimated
06:19PM 19.5006 -99.1697 125° Southeast  Level Estimated
06:20PM 19.4132 -99.0370 305° West  Level Estimated
06:21PM 19.5006 -99.1697 305° West  Level Estimated